Time;durP1;ratioP1;P1;durP2;ratioP2;P2;SDS_P1;SDS_P2;PMS_P1;PMS_P2;Temp;Humidity;BMP_temperature;BMP_pressure;BME280_temperature;BME280_humidity;BME280_pressure;Samples;Min_cycle;Max_cycle;Signal;HPM_P1;HPM_P2
2023/07/26 00:01:11;;;;;;;22.13;10.70;;;;;;;;;;4855783;29;20053;-86
2023/07/26 00:03:59;;;;;;;28.02;11.77;;;;;;;;;;4855359;29;20045;-86
2023/07/26 00:06:45;;;;;;;31.70;11.60;;;;;;;;;;4855578;29;20045;-87
2023/07/26 00:09:30;;;;;;;27.08;10.63;;;;;;;;;;4849396;29;20049;-82
2023/07/26 00:12:16;;;;;;;22.48;10.73;;;;;;;;;;4869156;29;20496;-82
2023/07/26 00:15:05;;;;;;;25.13;10.73;;;;;;;;;;4863116;29;20057;-83
2023/07/26 00:17:50;;;;;;;21.65;9.70;;;;;;;;;;4863204;29;20046;-82
2023/07/26 00:20:35;;;;;;;21.30;10.65;;;;;;;;;;4863111;29;20045;-81
2023/07/26 00:23:21;;;;;;;21.48;10.40;;;;;;;;;;4863359;29;20424;-82
2023/07/26 00:26:08;;;;;;;26.52;11.18;;;;;;;;;;4862471;29;20046;-81
2023/07/26 00:28:54;;;;;;;27.40;11.43;;;;;;;;;;4869929;29;20054;-82
2023/07/26 00:31:41;;;;;;;24.52;11.10;;;;;;;;;;4867849;29;20049;-83
2023/07/26 00:34:28;;;;;;;27.33;11.30;;;;;;;;;;4862767;29;20049;-82
2023/07/26 00:37:13;;;;;;;19.20;10.13;;;;;;;;;;4863199;29;20416;-82
2023/07/26 00:39:59;;;;;;;24.98;11.02;;;;;;;;;;4862508;29;20057;-83
2023/07/26 00:42:44;;;;;;;27.67;11.07;;;;;;;;;;4868179;29;20075;-82
2023/07/26 00:45:30;;;;;;;25.35;10.88;;;;;;;;;;4854798;29;20411;-81
2023/07/26 00:48:16;;;;;;;34.72;10.50;;;;;;;;;;4868241;29;20045;-80
2023/07/26 00:51:02;;;;;;;21.63;10.85;;;;;;;;;;4856340;29;20049;-81
2023/07/26 00:53:48;;;;;;;26.98;11.75;;;;;;;;;;4862670;29;20058;-81
2023/07/26 00:56:34;;;;;;;25.45;11.27;;;;;;;;;;4863219;29;20041;-81
2023/07/26 00:59:20;;;;;;;28.15;11.57;;;;;;;;;;4867491;29;20408;-83
2023/07/26 01:02:07;;;;;;;30.65;12.00;;;;;;;;;;4863025;29;20046;-82
2023/07/26 01:04:54;;;;;;;26.15;11.13;;;;;;;;;;4868174;29;20488;-81
2023/07/26 01:08:21;;;;;;;24.88;10.55;;;;;;;;;;4854676;29;20153;-80
2023/07/26 01:11:24;;;;;;;23.75;11.18;;;;;;;;;;4862430;29;20050;-81
2023/07/26 01:14:24;;;;;;;27.38;11.77;;;;;;;;;;4881786;29;20053;-81
2023/07/26 01:17:10;;;;;;;32.40;11.50;;;;;;;;;;4863195;29;20046;-81
2023/07/26 01:19:56;;;;;;;24.50;11.13;;;;;;;;;;4862634;29;20407;-80
2023/07/26 01:22:41;;;;;;;27.15;11.05;;;;;;;;;;4868626;29;20056;-86
2023/07/26 01:25:27;;;;;;;24.58;10.50;;;;;;;;;;4857507;29;20049;-88
2023/07/26 01:28:12;;;;;;;34.38;15.07;;;;;;;;;;4849732;29;20049;-83
2023/07/26 01:31:00;;;;;;;25.38;12.52;;;;;;;;;;4863813;29;20045;-83
2023/07/26 01:33:48;;;;;;;29.52;11.52;;;;;;;;;;4857264;29;20050;-83
2023/07/26 01:36:34;;;;;;;30.55;12.20;;;;;;;;;;4880708;29;20054;-87
2023/07/26 01:39:21;;;;;;;24.00;10.60;;;;;;;;;;4871282;29;20045;-83
2023/07/26 01:42:07;;;;;;;26.80;10.35;;;;;;;;;;4847827;29;20045;-83
2023/07/26 01:44:53;;;;;;;22.48;10.27;;;;;;;;;;4871627;29;20050;-86
2023/07/26 01:47:39;;;;;;;21.85;9.50;;;;;;;;;;4869043;29;20388;-84
2023/07/26 01:50:24;;;;;;;35.03;10.73;;;;;;;;;;4861873;29;20053;-84
2023/07/26 01:53:10;;;;;;;29.10;10.98;;;;;;;;;;4876324;29;20049;-87
2023/07/26 01:55:55;;;;;;;37.08;11.98;;;;;;;;;;4876732;29;20404;-87
2023/07/26 01:58:41;;;;;;;32.60;17.63;;;;;;;;;;4864849;29;20050;-88
2023/07/26 02:01:27;;;;;;;336.58;281.42;;;;;;;;;;4863182;29;20053;-88
2023/07/26 02:04:12;;;;;;;456.02;328.98;;;;;;;;;;4858255;29;20049;-84
2023/07/26 02:06:57;;;;;;;235.18;147.80;;;;;;;;;;4854043;29;20045;-83
2023/07/26 02:09:43;;;;;;;324.35;254.55;;;;;;;;;;4870735;29;20053;-87
2023/07/26 02:12:29;;;;;;;224.50;158.60;;;;;;;;;;4855560;29;20050;-83
2023/07/26 02:15:14;;;;;;;39.92;22.70;;;;;;;;;;4862126;29;20053;-86
2023/07/26 02:18:00;;;;;;;33.45;11.00;;;;;;;;;;4867566;29;20054;-88
2023/07/26 02:20:49;;;;;;;21.80;9.40;;;;;;;;;;4863667;29;20053;-84
2023/07/26 02:23:34;;;;;;;25.00;10.85;;;;;;;;;;4862031;29;20496;-88
2023/07/26 02:26:20;;;;;;;26.13;9.38;;;;;;;;;;4867321;29;20049;-88
2023/07/26 02:29:05;;;;;;;24.02;9.70;;;;;;;;;;4859932;29;20050;-86
2023/07/26 02:31:51;;;;;;;21.35;8.70;;;;;;;;;;4858423;29;20042;-88
2023/07/26 02:34:37;;;;;;;22.98;8.18;;;;;;;;;;4856317;29;20045;-88
2023/07/26 02:37:22;;;;;;;27.27;7.38;;;;;;;;;;4856618;29;20057;-87
2023/07/26 02:40:08;;;;;;;18.73;6.35;;;;;;;;;;4864530;29;20054;-88
2023/07/26 02:42:54;;;;;;;19.58;6.90;;;;;;;;;;4864223;29;20046;-86
2023/07/26 02:45:39;;;;;;;21.17;7.13;;;;;;;;;;4864017;29;20053;-88
2023/07/26 02:48:24;;;;;;;23.02;6.38;;;;;;;;;;4861972;29;20053;-85
2023/07/26 02:51:10;;;;;;;16.88;6.57;;;;;;;;;;4864538;29;20041;-85
2023/07/26 02:53:56;;;;;;;20.23;6.65;;;;;;;;;;4844299;29;20049;-88
2023/07/26 02:56:41;;;;;;;18.02;6.00;;;;;;;;;;4864750;29;20419;-84
2023/07/26 02:59:27;;;;;;;13.68;5.63;;;;;;;;;;4850300;29;20045;-84
2023/07/26 03:02:12;;;;;;;21.73;5.45;;;;;;;;;;4856478;29;20061;-85
2023/07/26 03:04:57;;;;;;;16.10;4.97;;;;;;;;;;4864478;29;20041;-82
2023/07/26 03:07:42;;;;;;;15.10;5.22;;;;;;;;;;4864528;29;20057;-83
2023/07/26 03:10:28;;;;;;;20.02;5.28;;;;;;;;;;4864780;29;20057;-84
2023/07/26 03:13:13;;;;;;;16.52;5.50;;;;;;;;;;4857263;29;20049;-86
2023/07/26 03:15:58;;;;;;;13.75;5.30;;;;;;;;;;4864268;29;20041;-84
2023/07/26 03:18:44;;;;;;;18.58;5.15;;;;;;;;;;4864716;29;20050;-88
2023/07/26 03:21:29;;;;;;;19.00;4.85;;;;;;;;;;4864592;29;20045;-87
2023/07/26 03:24:15;;;;;;;16.67;4.72;;;;;;;;;;4856442;29;20049;-88
2023/07/26 03:27:01;;;;;;;8.15;4.38;;;;;;;;;;4886953;29;20037;-86
2023/07/26 03:29:46;;;;;;;13.60;4.63;;;;;;;;;;4868078;29;20415;-89
2023/07/26 03:32:32;;;;;;;13.63;4.68;;;;;;;;;;4864119;29;20041;-89
2023/07/26 03:35:17;;;;;;;14.40;5.03;;;;;;;;;;4863686;29;20057;-86
2023/07/26 03:38:03;;;;;;;17.67;5.05;;;;;;;;;;4856175;29;20057;-83
2023/07/26 03:40:49;;;;;;;12.00;5.05;;;;;;;;;;4863647;29;20057;-83
2023/07/26 03:43:34;;;;;;;14.25;4.57;;;;;;;;;;4855796;29;20049;-87
2023/07/26 03:46:20;;;;;;;17.90;5.53;;;;;;;;;;4863838;29;20045;-87
2023/07/26 03:49:05;;;;;;;17.73;4.40;;;;;;;;;;4856108;29;20049;-87
2023/07/26 03:51:51;;;;;;;14.80;4.50;;;;;;;;;;4855691;29;20053;-83
2023/07/26 03:54:38;;;;;;;17.02;4.40;;;;;;;;;;4863339;29;20046;-86
2023/07/26 03:57:23;;;;;;;13.82;4.47;;;;;;;;;;4862259;29;20054;-86
2023/07/26 04:00:09;;;;;;;11.02;3.95;;;;;;;;;;4864130;29;20049;-88
2023/07/26 04:02:57;;;;;;;13.02;4.22;;;;;;;;;;4873065;29;20046;-88
2023/07/26 04:05:43;;;;;;;14.85;3.97;;;;;;;;;;4865311;29;20049;-87
2023/07/26 04:08:28;;;;;;;17.60;4.28;;;;;;;;;;4865088;29;20057;-86
2023/07/26 04:11:14;;;;;;;17.73;4.20;;;;;;;;;;4870027;29;20049;-84
2023/07/26 04:14:00;;;;;;;9.65;4.68;;;;;;;;;;4863712;29;20049;-86
2023/07/26 04:16:45;;;;;;;16.50;4.50;;;;;;;;;;4867994;29;20049;-86
2023/07/26 04:19:31;;;;;;;14.13;4.57;;;;;;;;;;4865662;29;20049;-83
2023/07/26 04:22:16;;;;;;;19.70;5.20;;;;;;;;;;4863898;29;20053;-86
2023/07/26 04:25:02;;;;;;;11.43;4.05;;;;;;;;;;4868127;29;20046;-87
2023/07/26 04:27:47;;;;;;;16.08;4.40;;;;;;;;;;4867209;29;20045;-86
2023/07/26 04:30:36;;;;;;;12.10;4.15;;;;;;;;;;4867020;29;20057;-84
2023/07/26 04:33:22;;;;;;;10.13;4.57;;;;;;;;;;4862913;29;20045;-84
2023/07/26 04:36:07;;;;;;;19.92;5.78;;;;;;;;;;4866251;29;20041;-87
2023/07/26 04:38:53;;;;;;;18.17;5.22;;;;;;;;;;4856249;29;20522;-87
2023/07/26 04:41:38;;;;;;;11.98;4.30;;;;;;;;;;4870000;29;20484;-87
2023/07/26 04:44:24;;;;;;;10.95;4.82;;;;;;;;;;4869282;29;20038;-88
2023/07/26 04:47:11;;;;;;;13.23;4.50;;;;;;;;;;4867881;29;20049;-85
2023/07/26 04:49:56;;;;;;;15.05;4.70;;;;;;;;;;4862491;29;20054;-84
2023/07/26 04:52:42;;;;;;;15.30;4.72;;;;;;;;;;4873622;29;20053;-86
2023/07/26 04:55:27;;;;;;;14.75;5.82;;;;;;;;;;4877147;29;20053;-87
2023/07/26 04:58:13;;;;;;;14.27;7.63;;;;;;;;;;4873733;29;20053;-88
2023/07/26 05:00:58;;;;;;;13.02;4.95;;;;;;;;;;4858906;29;20045;-87
2023/07/26 05:03:44;;;;;;;12.23;4.13;;;;;;;;;;4871620;29;20053;-85
2023/07/26 05:06:32;;;;;;;9.48;3.83;;;;;;;;;;4848550;29;20041;-83
2023/07/26 05:09:17;;;;;;;17.77;3.72;;;;;;;;;;4867101;29;20049;-87
2023/07/26 05:12:03;;;;;;;12.30;4.03;;;;;;;;;;4868522;29;20519;-88
2023/07/26 05:14:48;;;;;;;13.70;3.97;;;;;;;;;;4869597;29;20041;-85
2023/07/26 05:17:34;;;;;;;12.02;3.95;;;;;;;;;;4862618;29;20037;-84
2023/07/26 05:20:20;;;;;;;11.73;3.88;;;;;;;;;;4867766;29;20041;-87
2023/07/26 05:23:06;;;;;;;12.15;4.50;;;;;;;;;;4877096;29;20053;-87
2023/07/26 05:25:51;;;;;;;10.52;3.83;;;;;;;;;;4861926;29;20045;-84
2023/07/26 05:28:36;;;;;;;11.93;3.92;;;;;;;;;;4847977;29;20057;-84
2023/07/26 05:31:22;;;;;;;11.57;3.47;;;;;;;;;;4862051;29;20057;-84
2023/07/26 05:34:07;;;;;;;11.85;3.85;;;;;;;;;;4861849;29;20053;-84
2023/07/26 05:36:53;;;;;;;15.15;3.90;;;;;;;;;;4862831;29;20045;-87
2023/07/26 05:39:39;;;;;;;11.00;4.65;;;;;;;;;;4878572;29;20061;-85
2023/07/26 05:42:24;;;;;;;18.35;4.80;;;;;;;;;;4875122;29;20045;-84
2023/07/26 05:45:10;;;;;;;15.90;5.25;;;;;;;;;;4865000;29;20041;-84
2023/07/26 05:47:55;;;;;;;11.60;5.20;;;;;;;;;;4861952;29;20404;-86
2023/07/26 05:50:41;;;;;;;8.80;4.55;;;;;;;;;;4862145;29;20049;-84
2023/07/26 05:53:26;;;;;;;10.75;5.28;;;;;;;;;;4869343;29;20042;-83
2023/07/26 05:56:14;;;;;;;13.48;6.25;;;;;;;;;;4868451;29;20045;-85
2023/07/26 05:58:59;;;;;;;15.77;6.45;;;;;;;;;;4867061;29;20041;-86
2023/07/26 06:01:45;;;;;;;14.85;7.85;;;;;;;;;;4870822;29;20042;-84
2023/07/26 06:04:30;;;;;;;18.13;10.27;;;;;;;;;;4861888;29;20057;-87
2023/07/26 06:07:16;;;;;;;19.77;11.50;;;;;;;;;;4865231;29;20049;-87
2023/07/26 06:10:03;;;;;;;20.73;12.77;;;;;;;;;;4865358;29;20045;-87
2023/07/26 06:12:49;;;;;;;19.40;13.00;;;;;;;;;;4864305;29;20053;-86
2023/07/26 06:15:34;;;;;;;21.58;13.68;;;;;;;;;;4869376;29;20485;-86
2023/07/26 06:18:20;;;;;;;21.13;13.80;;;;;;;;;;4863866;29;20404;-85
2023/07/26 06:21:05;;;;;;;20.15;13.38;;;;;;;;;;4861942;29;20049;-82
2023/07/26 06:23:51;;;;;;;28.90;13.25;;;;;;;;;;4864296;29;20484;-83
2023/07/26 06:26:36;;;;;;;17.50;11.45;;;;;;;;;;4865729;29;20045;-87
2023/07/26 06:29:21;;;;;;;14.00;10.25;;;;;;;;;;4866160;29;20045;-81
2023/07/26 06:32:07;;;;;;;16.05;10.48;;;;;;;;;;4871033;29;20053;-84
2023/07/26 06:34:53;;;;;;;19.17;11.98;;;;;;;;;;4867195;29;20432;-87
2023/07/26 06:37:38;;;;;;;19.63;12.65;;;;;;;;;;4872603;29;20488;-83
2023/07/26 06:40:24;;;;;;;20.85;12.63;;;;;;;;;;4863651;29;20057;-85
2023/07/26 06:43:09;;;;;;;19.25;13.55;;;;;;;;;;4865190;29;20053;-89
2023/07/26 06:45:55;;;;;;;24.98;14.95;;;;;;;;;;4852140;29;20041;-88
2023/07/26 06:48:40;;;;;;;28.83;15.90;;;;;;;;;;4860559;29;20484;-88
2023/07/26 06:51:26;;;;;;;25.73;16.98;;;;;;;;;;4865043;29;20049;-84
2023/07/26 06:54:11;;;;;;;21.92;16.02;;;;;;;;;;4865474;29;20041;-87
2023/07/26 06:56:57;;;;;;;26.42;16.48;;;;;;;;;;4865805;29;20042;-87
2023/07/26 06:59:43;;;;;;;25.63;18.40;;;;;;;;;;4870707;29;20316;-86
2023/07/26 07:02:28;;;;;;;27.77;19.20;;;;;;;;;;4865369;29;20057;-86
2023/07/26 07:05:14;;;;;;;27.90;18.98;;;;;;;;;;4864527;29;20042;-87
2023/07/26 07:07:59;;;;;;;28.63;19.27;;;;;;;;;;4865515;29;20045;-87
2023/07/26 07:10:45;;;;;;;25.83;19.20;;;;;;;;;;4865087;29;20049;-83
2023/07/26 07:13:35;;;;;;;28.25;20.10;;;;;;;;;;4865072;29;20049;-83
2023/07/26 07:16:20;;;;;;;27.95;19.77;;;;;;;;;;4864567;29;20508;-83
2023/07/26 07:19:06;;;;;;;26.85;19.50;;;;;;;;;;4870419;29;20053;-86
2023/07/26 07:21:51;;;;;;;28.75;19.38;;;;;;;;;;4869932;29;20049;-83
2023/07/26 07:24:38;;;;;;;32.63;19.02;;;;;;;;;;4864770;29;20054;-84
2023/07/26 07:27:24;;;;;;;30.95;20.08;;;;;;;;;;4850970;29;20057;-88
2023/07/26 07:30:10;;;;;;;30.38;19.92;;;;;;;;;;4858471;29;20037;-88
2023/07/26 07:32:55;;;;;;;27.88;19.63;;;;;;;;;;4859891;29;20041;-87
2023/07/26 07:35:41;;;;;;;25.83;19.70;;;;;;;;;;4865346;29;20059;-87
2023/07/26 07:38:27;;;;;;;29.60;19.55;;;;;;;;;;4858872;29;20050;-88
2023/07/26 07:41:14;;;;;;;31.05;19.90;;;;;;;;;;4851366;29;20057;-82
2023/07/26 07:43:59;;;;;;;28.60;19.33;;;;;;;;;;4870451;29;20400;-84
2023/07/26 07:46:45;;;;;;;29.13;20.85;;;;;;;;;;4875962;29;20381;-84
2023/07/26 07:49:30;;;;;;;28.92;20.15;;;;;;;;;;4867198;29;20049;-75
2023/07/26 07:52:16;;;;;;;24.48;17.02;;;;;;;;;;4871001;29;20042;-75
2023/07/26 07:55:02;;;;;;;21.23;16.67;;;;;;;;;;4864928;29;20057;-78
2023/07/26 07:57:47;;;;;;;17.15;14.43;;;;;;;;;;4864240;29;20492;-76
2023/07/26 08:00:32;;;;;;;19.83;14.13;;;;;;;;;;4863574;29;20041;-75
2023/07/26 08:03:18;;;;;;;16.30;13.68;;;;;;;;;;4865625;29;20041;-76
2023/07/26 08:06:03;;;;;;;17.30;13.77;;;;;;;;;;4870373;29;20049;-80
2023/07/26 08:08:49;;;;;;;20.17;13.25;;;;;;;;;;4863270;29;20049;-78
2023/07/26 08:11:35;;;;;;;18.20;12.60;;;;;;;;;;4869483;29;20053;-78
2023/07/26 08:14:20;;;;;;;19.30;14.25;;;;;;;;;;4869132;29;20396;-77
2023/07/26 08:17:06;;;;;;;18.50;13.60;;;;;;;;;;4863407;29;20046;-78
2023/07/26 08:19:51;;;;;;;14.85;12.55;;;;;;;;;;4869486;29;20045;-79
2023/07/26 08:22:38;;;;;;;12.38;10.98;;;;;;;;;;4869212;29;20046;-79
2023/07/26 08:25:24;;;;;;;15.27;12.13;;;;;;;;;;4863224;29;20057;-79
2023/07/26 08:28:10;;;;;;;15.85;10.60;;;;;;;;;;4863849;29;20041;-78
2023/07/26 08:30:55;;;;;;;14.23;9.23;;;;;;;;;;4863135;29;20049;-76
2023/07/26 08:33:41;;;;;;;12.85;9.50;;;;;;;;;;4863038;29;20057;-77
2023/07/26 08:36:26;;;;;;;11.63;8.23;;;;;;;;;;4868990;29;20061;-77
2023/07/26 08:39:12;;;;;;;9.65;8.20;;;;;;;;;;4862829;29;20050;-76
2023/07/26 08:41:57;;;;;;;13.27;8.13;;;;;;;;;;4868873;29;20045;-75
2023/07/26 08:44:46;;;;;;;11.65;7.57;;;;;;;;;;4869131;29;20041;-77
2023/07/26 08:47:34;;;;;;;9.82;7.25;;;;;;;;;;4861893;29;20046;-78
2023/07/26 08:50:19;;;;;;;9.95;7.30;;;;;;;;;;4868550;29;20045;-79
2023/07/26 08:53:06;;;;;;;9.30;6.03;;;;;;;;;;4868590;29;20053;-78
2023/07/26 08:55:51;;;;;;;8.07;6.65;;;;;;;;;;4862223;29;20045;-80
2023/07/26 08:58:37;;;;;;;7.28;6.40;;;;;;;;;;4862204;29;20053;-79
2023/07/26 09:01:23;;;;;;;10.13;6.32;;;;;;;;;;4861965;29;20045;-79
2023/07/26 09:04:08;;;;;;;6.50;5.90;;;;;;;;;;4866368;29;20046;-84
2023/07/26 09:06:54;;;;;;;7.47;6.20;;;;;;;;;;4867956;29;20053;-83
2023/07/26 09:10:02;;;;;;;8.40;5.72;;;;;;;;;;5070819;28;20130;-82
2023/07/26 09:12:49;;;;;;;10.43;6.60;;;;;;;;;;5071062;28;20041;-80
2023/07/26 09:15:36;;;;;;;7.13;5.60;;;;;;;;;;5076816;28;20052;-81
2023/07/26 09:18:21;;;;;;;6.97;5.95;;;;;;;;;;5077608;28;20480;-81
2023/07/26 09:21:08;;;;;;;8.65;6.60;;;;;;;;;;5077408;28;20045;-83
2023/07/26 09:23:54;;;;;;;41.50;22.33;;;;;;;;;;5070660;28;20045;-82
2023/07/26 09:26:41;;;;;;;8.02;6.53;;;;;;;;;;5070779;28;20404;-81
2023/07/26 09:29:26;;;;;;;15.50;8.85;;;;;;;;;;5070767;28;20040;-82
2023/07/26 09:32:12;;;;;;;7.55;6.70;;;;;;;;;;5076481;28;20048;-83
2023/07/26 09:34:59;;;;;;;10.82;7.45;;;;;;;;;;5070790;28;20040;-81
2023/07/26 09:37:45;;;;;;;9.15;6.85;;;;;;;;;;5070258;28;20044;-81
2023/07/26 09:40:33;;;;;;;8.85;7.55;;;;;;;;;;5069266;28;20045;-82
2023/07/26 09:43:32;;;;;;;7.53;6.72;;;;;;;;;;5070482;28;20049;-83
2023/07/26 09:46:19;;;;;;;11.45;7.05;;;;;;;;;;5076388;28;20044;-83
2023/07/26 09:49:05;;;;;;;11.27;8.32;;;;;;;;;;5070096;28;20044;-82
2023/07/26 09:51:54;;;;;;;9.15;8.00;;;;;;;;;;5070053;28;20044;-82
2023/07/26 09:54:40;;;;;;;11.23;8.27;;;;;;;;;;5070505;28;20044;-83
2023/07/26 09:57:26;;;;;;;12.90;7.95;;;;;;;;;;5075875;28;20507;-84
2023/07/26 10:00:12;;;;;;;8.27;7.20;;;;;;;;;;5069808;28;20040;-84
2023/07/26 10:03:01;;;;;;;11.43;7.63;;;;;;;;;;5070008;28;20044;-83
2023/07/26 10:05:48;;;;;;;12.07;8.65;;;;;;;;;;5075404;28;20480;-81
2023/07/26 10:08:35;;;;;;;10.43;8.48;;;;;;;;;;5069883;28;20052;-80
2023/07/26 10:11:22;;;;;;;11.43;9.02;;;;;;;;;;5070288;28;20041;-81
2023/07/26 10:14:09;;;;;;;12.70;8.35;;;;;;;;;;5070024;28;20049;-83
2023/07/26 10:16:58;;;;;;;12.77;8.57;;;;;;;;;;5070085;28;20052;-80
2023/07/26 10:19:46;;;;;;;13.45;8.20;;;;;;;;;;5064240;28;20053;-82
2023/07/26 10:22:33;;;;;;;9.93;8.65;;;;;;;;;;5055677;28;20387;-84
2023/07/26 10:25:18;;;;;;;10.07;8.40;;;;;;;;;;5048474;28;20044;-82
2023/07/26 10:28:04;;;;;;;9.52;7.70;;;;;;;;;;5061928;28;20049;-82
2023/07/26 10:30:52;;;;;;;14.18;8.73;;;;;;;;;;5066909;28;20049;-81
2023/07/26 10:33:45;;;;;;;10.52;8.32;;;;;;;;;;5061365;28;20041;-83
2023/07/26 10:36:32;;;;;;;10.23;8.60;;;;;;;;;;5056093;28;20041;-80
2023/07/26 10:39:28;;;;;;;14.85;9.00;;;;;;;;;;5058348;28;20057;-82
2023/07/26 10:42:24;;;;;;;14.18;10.13;;;;;;;;;;5056040;28;20045;-82
2023/07/26 10:45:37;;;;;;;16.60;10.70;;;;;;;;;;5056841;28;20392;-81
2023/07/26 10:48:41;;;;;;;14.02;12.63;;;;;;;;;;5056003;28;20037;-82
2023/07/26 10:51:34;;;;;;;17.65;14.77;;;;;;;;;;5057095;28;20045;-81
2023/07/26 10:54:49;;;;;;;19.00;17.08;;;;;;;;;;5056194;28;20049;-83
2023/07/26 10:57:48;;;;;;;22.05;16.75;;;;;;;;;;5039334;28;20041;-82
2023/07/26 11:00:34;;;;;;;16.20;13.82;;;;;;;;;;5055722;28;20476;-81
2023/07/26 11:03:25;;;;;;;14.77;11.40;;;;;;;;;;5056488;28;20045;-82
2023/07/26 11:06:10;;;;;;;13.88;11.73;;;;;;;;;;5056474;28;20045;-81
2023/07/26 11:08:57;;;;;;;13.75;10.40;;;;;;;;;;5054775;28;20053;-83
2023/07/26 11:11:59;;;;;;;11.90;9.43;;;;;;;;;;5055979;28;20033;-83
2023/07/26 11:14:46;;;;;;;7.88;6.10;;;;;;;;;;5048916;28;20048;-84
2023/07/26 11:17:31;;;;;;;10.38;6.43;;;;;;;;;;5056434;28;20045;-82
2023/07/26 11:20:16;;;;;;;8.82;6.35;;;;;;;;;;5054909;28;20057;-83
2023/07/26 11:23:17;;;;;;;12.52;6.93;;;;;;;;;;5061122;28;20049;-81
2023/07/26 11:26:03;;;;;;;12.70;6.63;;;;;;;;;;5056072;28;20049;-83
2023/07/26 11:28:48;;;;;;;6.57;4.55;;;;;;;;;;5054893;28;20384;-82
2023/07/26 11:31:34;;;;;;;10.52;5.65;;;;;;;;;;5054515;28;20041;-82
2023/07/26 11:34:20;;;;;;;12.70;6.68;;;;;;;;;;5047304;28;20053;-85
2023/07/26 11:37:14;;;;;;;11.57;5.90;;;;;;;;;;5055104;28;20041;-82
2023/07/26 11:40:08;;;;;;;;;;;;;;;;;;5055184;28;20115;-82
2023/07/26 11:42:54;;;;;;;9.37;6.23;;;;;;;;;;5054802;28;19912;-83
2023/07/26 11:45:43;;;;;;;11.07;6.72;;;;;;;;;;5055048;28;20263;-83
2023/07/26 11:48:32;;;;;;;10.43;6.15;;;;;;;;;;5055031;28;20044;-82
2023/07/26 11:51:17;;;;;;;9.13;5.97;;;;;;;;;;5046188;28;20045;-82
2023/07/26 11:54:06;;;;;;;10.43;5.75;;;;;;;;;;5054261;28;20053;-81
2023/07/26 11:56:52;;;;;;;16.27;5.60;;;;;;;;;;5061610;28;20050;-81
2023/07/26 11:59:38;;;;;;;6.70;4.10;;;;;;;;;;5054659;28;20052;-84
2023/07/26 12:02:24;;;;;;;6.32;2.92;;;;;;;;;;5055148;28;20037;-81
2023/07/26 12:05:15;;;;;;;9.27;2.95;;;;;;;;;;5053361;28;20052;-83
2023/07/26 12:08:05;;;;;;;5.15;3.05;;;;;;;;;;5054495;28;20057;-83
2023/07/26 12:10:50;;;;;;;5.25;2.97;;;;;;;;;;5053575;28;20468;-82
2023/07/26 12:13:37;;;;;;;6.22;2.90;;;;;;;;;;5054540;28;20049;-83
2023/07/26 12:16:27;;;;;;;5.97;3.30;;;;;;;;;;5054289;28;20049;-83
2023/07/26 12:19:12;;;;;;;7.45;3.30;;;;;;;;;;5060155;28;20057;-81
2023/07/26 12:22:00;;;;;;;7.05;3.42;;;;;;;;;;5054444;28;20057;-82
2023/07/26 12:24:52;;;;;;;7.72;3.40;;;;;;;;;;5054437;28;20041;-82
2023/07/26 12:27:37;;;;;;;8.98;3.50;;;;;;;;;;5057481;28;20041;-83
2023/07/26 12:30:25;;;;;;;7.60;4.70;;;;;;;;;;5063577;28;20037;-83
2023/07/26 12:33:12;;;;;;;7.22;3.00;;;;;;;;;;5057833;28;20053;-83
2023/07/26 12:35:58;;;;;;;6.53;2.88;;;;;;;;;;5061239;28;20049;-82
2023/07/26 12:38:44;;;;;;;7.25;3.20;;;;;;;;;;5063068;28;20396;-82
2023/07/26 12:41:29;;;;;;;5.15;3.33;;;;;;;;;;5060696;28;20052;-80
2023/07/26 12:44:16;;;;;;;7.57;3.05;;;;;;;;;;5052986;28;20040;-81
2023/07/26 12:47:02;;;;;;;8.35;4.22;;;;;;;;;;5060234;28;20041;-81
2023/07/26 12:49:47;;;;;;;7.97;3.50;;;;;;;;;;5053087;28;20045;-82
2023/07/26 12:52:37;;;;;;;8.55;3.90;;;;;;;;;;5054357;28;20041;-82
2023/07/26 12:55:22;;;;;;;7.85;3.40;;;;;;;;;;5053896;28;20049;-83
2023/07/26 12:58:08;;;;;;;6.90;3.75;;;;;;;;;;5054152;28;20041;-83
2023/07/26 13:00:53;;;;;;;10.40;3.97;;;;;;;;;;5055506;28;20404;-82
2023/07/26 13:03:40;;;;;;;7.32;3.70;;;;;;;;;;5046713;28;20057;-83
2023/07/26 13:06:25;;;;;;;7.80;3.40;;;;;;;;;;5059726;28;20049;-83
2023/07/26 13:09:11;;;;;;;9.90;3.83;;;;;;;;;;5057080;28;20049;-81
2023/07/26 13:11:56;;;;;;;12.70;4.55;;;;;;;;;;5056757;28;20491;-82
2023/07/26 13:14:42;;;;;;;8.50;4.43;;;;;;;;;;5057045;28;20045;-82
2023/07/26 13:17:28;;;;;;;17.13;6.30;;;;;;;;;;5060320;28;20144;-81
2023/07/26 13:20:14;;;;;;;11.10;5.85;;;;;;;;;;5059490;28;20480;-81
2023/07/26 13:22:59;;;;;;;14.00;6.63;;;;;;;;;;5053391;28;20041;-80
2023/07/26 13:25:46;;;;;;;13.32;6.13;;;;;;;;;;5053465;28;20044;-81
2023/07/26 13:28:32;;;;;;;13.48;7.25;;;;;;;;;;5053341;28;20045;-80
2023/07/26 13:31:18;;;;;;;11.95;6.35;;;;;;;;;;5053169;28;20480;-80
2023/07/26 13:34:04;;;;;;;15.65;6.50;;;;;;;;;;5053342;28;20041;-79
2023/07/26 13:36:49;;;;;;;19.90;6.80;;;;;;;;;;5053009;28;20041;-79
2023/07/26 13:39:35;;;;;;;8.77;6.53;;;;;;;;;;5053088;28;20041;-80
2023/07/26 13:42:20;;;;;;;9.88;6.50;;;;;;;;;;5059020;28;20045;-80
2023/07/26 13:45:05;;;;;;;13.77;9.15;;;;;;;;;;5053541;28;20041;-80
2023/07/26 13:47:50;;;;;;;39.20;25.83;;;;;;;;;;5052210;28;20045;-82
2023/07/26 13:50:36;;;;;;;29.55;21.23;;;;;;;;;;5054017;28;20041;-82
2023/07/26 13:53:22;;;;;;;27.60;15.85;;;;;;;;;;5053691;28;20053;-81
2023/07/26 13:56:08;;;;;;;20.17;11.35;;;;;;;;;;5055867;28;20053;-81
2023/07/26 13:58:53;;;;;;;16.13;8.80;;;;;;;;;;5056976;28;20399;-81
2023/07/26 14:01:38;;;;;;;14.82;9.23;;;;;;;;;;5056870;28;20033;-81
2023/07/26 14:04:24;;;;;;;14.18;8.57;;;;;;;;;;5056342;28;20045;-80
2023/07/26 14:07:09;;;;;;;9.85;6.90;;;;;;;;;;5056810;28;20053;-80
2023/07/26 14:09:55;;;;;;;11.25;6.03;;;;;;;;;;5055388;28;20045;-80
2023/07/26 14:12:40;;;;;;;19.60;8.68;;;;;;;;;;5057046;28;20053;-81
2023/07/26 14:15:25;;;;;;;12.38;7.68;;;;;;;;;;5056684;28;20045;-81
2023/07/26 14:18:11;;;;;;;12.18;6.47;;;;;;;;;;5056377;28;20045;-81
2023/07/26 14:20:56;;;;;;;12.20;6.72;;;;;;;;;;5056798;28;20037;-82
2023/07/26 14:23:42;;;;;;;14.55;7.30;;;;;;;;;;5056521;28;20045;-82
2023/07/26 14:26:27;;;;;;;16.50;8.07;;;;;;;;;;5056735;28;20045;-82
2023/07/26 14:29:13;;;;;;;14.38;7.47;;;;;;;;;;5056573;28;20049;-81
2023/07/26 14:31:59;;;;;;;11.23;5.65;;;;;;;;;;5056079;28;20053;-83
2023/07/26 14:34:44;;;;;;;13.68;5.30;;;;;;;;;;5056413;28;20041;-82
2023/07/26 14:37:29;;;;;;;9.80;5.22;;;;;;;;;;5056425;28;20201;-83
2023/07/26 14:40:14;;;;;;;7.15;4.65;;;;;;;;;;5056251;28;20044;-80
2023/07/26 14:43:00;;;;;;;9.73;4.85;;;;;;;;;;5056249;28;20052;-82
2023/07/26 14:45:46;;;;;;;8.77;5.28;;;;;;;;;;5054690;28;20045;-83
2023/07/26 14:48:31;;;;;;;8.15;5.22;;;;;;;;;;5048069;28;20476;-82
2023/07/26 14:51:17;;;;;;;7.55;4.55;;;;;;;;;;5056011;28;20049;-81
2023/07/26 14:54:03;;;;;;;10.60;4.70;;;;;;;;;;5055625;28;20057;-82
2023/07/26 14:56:48;;;;;;;9.88;4.35;;;;;;;;;;5056376;28;20388;-81
2023/07/26 14:59:33;;;;;;;7.28;4.18;;;;;;;;;;5063213;28;20052;-82
2023/07/26 15:02:19;;;;;;;6.65;4.38;;;;;;;;;;5056849;28;20464;-81
2023/07/26 15:05:05;;;;;;;10.85;6.15;;;;;;;;;;5057211;28;20376;-81
2023/07/26 15:07:51;;;;;;;14.82;8.98;;;;;;;;;;5055852;28;20052;-82
2023/07/26 15:10:36;;;;;;;20.23;10.25;;;;;;;;;;5056021;28;20044;-82
2023/07/26 15:13:22;;;;;;;16.05;6.30;;;;;;;;;;5054570;28;20041;-82
2023/07/26 15:16:07;;;;;;;7.95;5.03;;;;;;;;;;5054409;28;20484;-82
2023/07/26 15:18:53;;;;;;;7.32;4.50;;;;;;;;;;5054666;28;20037;-82
2023/07/26 15:21:38;;;;;;;12.50;7.10;;;;;;;;;;5055175;28;20392;-83
2023/07/26 15:24:27;;;;;;;13.68;8.93;;;;;;;;;;5055234;28;20041;-82
2023/07/26 15:27:13;;;;;;;14.70;8.05;;;;;;;;;;5055882;28;20049;-81
2023/07/26 15:29:58;;;;;;;14.98;8.18;;;;;;;;;;5054948;28;20037;-82
2023/07/26 15:32:44;;;;;;;9.65;5.57;;;;;;;;;;5055682;28;20049;-82
2023/07/26 15:35:31;;;;;;;7.60;5.00;;;;;;;;;;5060387;28;20045;-83
2023/07/26 15:38:16;;;;;;;9.65;5.13;;;;;;;;;;5054886;28;20045;-82
2023/07/26 15:41:02;;;;;;;9.95;5.55;;;;;;;;;;5054993;28;20057;-83
2023/07/26 15:43:48;;;;;;;11.70;4.70;;;;;;;;;;5055121;28;20048;-82
2023/07/26 15:46:35;;;;;;;7.80;4.22;;;;;;;;;;5060749;28;20049;-83
2023/07/26 15:49:20;;;;;;;6.70;4.13;;;;;;;;;;5054670;28;20053;-83
2023/07/26 15:52:06;;;;;;;8.30;4.35;;;;;;;;;;5061275;28;20057;-84
2023/07/26 15:54:51;;;;;;;9.10;5.38;;;;;;;;;;5055668;28;20041;-84
2023/07/26 15:57:37;;;;;;;8.45;5.50;;;;;;;;;;5055072;28;20479;-86
2023/07/26 16:00:22;;;;;;;7.40;4.55;;;;;;;;;;5056302;28;20052;-84
2023/07/26 16:03:09;;;;;;;8.82;5.50;;;;;;;;;;5053331;28;20041;-84
2023/07/26 16:05:54;;;;;;;10.77;4.75;;;;;;;;;;5053505;28;20045;-84
2023/07/26 16:08:40;;;;;;;8.88;5.65;;;;;;;;;;5053107;28;20053;-84
2023/07/26 16:11:26;;;;;;;9.23;5.85;;;;;;;;;;5056905;28;20389;-84
2023/07/26 16:14:11;;;;;;;6.68;4.35;;;;;;;;;;5055532;28;20053;-82
2023/07/26 16:16:57;;;;;;;6.30;4.30;;;;;;;;;;5055392;28;20385;-83
2023/07/26 16:19:42;;;;;;;7.93;4.22;;;;;;;;;;5048019;28;20056;-83
2023/07/26 16:22:28;;;;;;;5.03;3.97;;;;;;;;;;5054037;28;20477;-83